KUKT

Details ICAO KUKT
Name Quakertown Airport
Region United States
Timezone America/New_York (UTC-4.0)
Plans Departing 15
Arriving 6
Stats Elevation 524 ft / 160 m (AMSL)
Location 40.435145° -75.381936°
Runways 1
Magnetic Variation 12.104° W
Sunrise 2018-05-23 09:40:02 UTC / 2018-05-23 05:40:02 Local
Sunset 2018-05-24 00:19:25 UTC / 2018-05-23 20:19:25 Local
Advertisement - Login to hide

Runways

ID Width Length Bearing (true) Bearing (mag) Surface Threshold Offset Overrun Length
11 76 ft / 23 m 3,212 ft / 979 m 98.81° 110.91° Asphalt 0 ft / 0 m 0 ft / 0 m
29 76 ft / 23 m 3,212 ft / 979 m 278.82° 290.92° Asphalt 190 ft / 58 m 0 ft / 0 m

Map

Weather


0- 5 10 15 20 25 30 35+ Temperature / ° C

Clouds and Precipitation
Forecast for 2018-05-23 18:00 UTC. Updated 4 hours ago

Ground ~20,000 ft ~40,000 ft Winds

METAR

KUKT 232115Z AUTO VRB06KT 10SM FEW060 25/13 A3000 RMK A01

TAF

Not found

Frequencies

Recorded 119.47 MHz WX AWOS-3
Clearance 118.55 MHz CLNC DEL
Unicom 122.72 MHz CTAF/UNICOM
Approach 123.80 MHz PHILADELPHIA APP/DEP
Warning: Do not use this data for real-world aviation or navigation. No guarantee of current accuracy is given.